sensor_id;sensor_type;location;lat;lon;timestamp;P1;durP1;ratioP1;P2;durP2;ratioP2
84474;SDS011;74699;43.068;0.152;2023-12-22T00:00:04;7.05;;;0.80;;
84474;SDS011;74699;43.068;0.152;2023-12-22T00:02:30;4.72;;;0.73;;
84474;SDS011;74699;43.068;0.152;2023-12-22T00:04:56;7.78;;;1.42;;
84474;SDS011;74699;43.068;0.152;2023-12-22T00:07:22;4.93;;;0.80;;
84474;SDS011;74699;43.068;0.152;2023-12-22T00:09:49;10.20;;;1.10;;
84474;SDS011;74699;43.068;0.152;2023-12-22T00:12:15;6.55;;;1.27;;
84474;SDS011;74699;43.068;0.152;2023-12-22T00:14:41;6.40;;;1.35;;
84474;SDS011;74699;43.068;0.152;2023-12-22T00:17:07;7.30;;;1.35;;
84474;SDS011;74699;43.068;0.152;2023-12-22T00:19:33;5.93;;;1.02;;
84474;SDS011;74699;43.068;0.152;2023-12-22T00:21:59;7.03;;;1.10;;
84474;SDS011;74699;43.068;0.152;2023-12-22T00:24:25;6.25;;;0.98;;
84474;SDS011;74699;43.068;0.152;2023-12-22T00:26:51;8.13;;;1.23;;
84474;SDS011;74699;43.068;0.152;2023-12-22T00:29:17;7.03;;;1.38;;
84474;SDS011;74699;43.068;0.152;2023-12-22T00:31:43;5.00;;;0.90;;
84474;SDS011;74699;43.068;0.152;2023-12-22T00:34:09;7.60;;;0.98;;
84474;SDS011;74699;43.068;0.152;2023-12-22T00:36:35;5.78;;;0.70;;
84474;SDS011;74699;43.068;0.152;2023-12-22T00:39:01;3.53;;;1.17;;
84474;SDS011;74699;43.068;0.152;2023-12-22T00:41:28;5.70;;;1.00;;
84474;SDS011;74699;43.068;0.152;2023-12-22T00:43:54;7.55;;;1.20;;
84474;SDS011;74699;43.068;0.152;2023-12-22T00:46:20;5.75;;;0.63;;
84474;SDS011;74699;43.068;0.152;2023-12-22T00:48:46;4.38;;;0.73;;
84474;SDS011;74699;43.068;0.152;2023-12-22T00:51:12;3.90;;;0.65;;
84474;SDS011;74699;43.068;0.152;2023-12-22T00:53:38;4.40;;;0.70;;
84474;SDS011;74699;43.068;0.152;2023-12-22T00:56:04;3.35;;;0.60;;
84474;SDS011;74699;43.068;0.152;2023-12-22T00:58:31;4.88;;;0.90;;
84474;SDS011;74699;43.068;0.152;2023-12-22T01:00:57;2.50;;;0.47;;
84474;SDS011;74699;43.068;0.152;2023-12-22T01:03:23;4.80;;;0.70;;
84474;SDS011;74699;43.068;0.152;2023-12-22T01:05:49;4.57;;;0.47;;
84474;SDS011;74699;43.068;0.152;2023-12-22T01:08:15;4.15;;;0.70;;
84474;SDS011;74699;43.068;0.152;2023-12-22T01:10:41;3.25;;;0.70;;
84474;SDS011;74699;43.068;0.152;2023-12-22T01:13:07;4.70;;;0.50;;
84474;SDS011;74699;43.068;0.152;2023-12-22T01:15:33;1.92;;;0.40;;
84474;SDS011;74699;43.068;0.152;2023-12-22T01:17:59;5.72;;;0.90;;
84474;SDS011;74699;43.068;0.152;2023-12-22T01:20:25;4.32;;;0.75;;
84474;SDS011;74699;43.068;0.152;2023-12-22T01:22:51;4.68;;;0.52;;
84474;SDS011;74699;43.068;0.152;2023-12-22T01:25:17;3.42;;;0.50;;
84474;SDS011;74699;43.068;0.152;2023-12-22T01:27:43;4.25;;;0.50;;
84474;SDS011;74699;43.068;0.152;2023-12-22T01:30:09;3.22;;;0.30;;
84474;SDS011;74699;43.068;0.152;2023-12-22T01:32:35;3.15;;;0.40;;
84474;SDS011;74699;43.068;0.152;2023-12-22T01:35:02;2.17;;;0.35;;
84474;SDS011;74699;43.068;0.152;2023-12-22T01:37:32;4.20;;;0.50;;
84474;SDS011;74699;43.068;0.152;2023-12-22T01:39:58;3.10;;;0.52;;
84474;SDS011;74699;43.068;0.152;2023-12-22T01:42:24;2.35;;;0.28;;
84474;SDS011;74699;43.068;0.152;2023-12-22T01:44:50;1.55;;;0.28;;
84474;SDS011;74699;43.068;0.152;2023-12-22T01:47:16;1.02;;;0.20;;
84474;SDS011;74699;43.068;0.152;2023-12-22T01:49:42;3.30;;;0.30;;
84474;SDS011;74699;43.068;0.152;2023-12-22T01:52:08;2.40;;;0.38;;
84474;SDS011;74699;43.068;0.152;2023-12-22T01:54:34;2.70;;;0.40;;
84474;SDS011;74699;43.068;0.152;2023-12-22T01:57:01;2.75;;;0.43;;
84474;SDS011;74699;43.068;0.152;2023-12-22T01:59:27;1.60;;;0.20;;
84474;SDS011;74699;43.068;0.152;2023-12-22T02:01:59;1.30;;;0.20;;
84474;SDS011;74699;43.068;0.152;2023-12-22T02:04:25;2.80;;;0.30;;
84474;SDS011;74699;43.068;0.152;2023-12-22T02:06:52;2.20;;;0.40;;
84474;SDS011;74699;43.068;0.152;2023-12-22T02:09:18;0.73;;;0.10;;
84474;SDS011;74699;43.068;0.152;2023-12-22T02:11:44;1.25;;;0.28;;
84474;SDS011;74699;43.068;0.152;2023-12-22T02:14:10;0.90;;;0.10;;
84474;SDS011;74699;43.068;0.152;2023-12-22T02:16:54;0.25;;;0.03;;
84474;SDS011;74699;43.068;0.152;2023-12-22T02:21:59;0.93;;;0.10;;
84474;SDS011;74699;43.068;0.152;2023-12-22T02:24:25;1.00;;;0.10;;
84474;SDS011;74699;43.068;0.152;2023-12-22T02:26:51;0.80;;;0.00;;
84474;SDS011;74699;43.068;0.152;2023-12-22T02:29:20;0.57;;;0.08;;
84474;SDS011;74699;43.068;0.152;2023-12-22T02:31:47;0.45;;;0.08;;
84474;SDS011;74699;43.068;0.152;2023-12-22T02:34:18;0.65;;;0.00;;
84474;SDS011;74699;43.068;0.152;2023-12-22T02:36:44;0.60;;;0.10;;
84474;SDS011;74699;43.068;0.152;2023-12-22T02:39:11;1.30;;;0.20;;
84474;SDS011;74699;43.068;0.152;2023-12-22T02:41:37;0.90;;;0.20;;
84474;SDS011;74699;43.068;0.152;2023-12-22T02:44:03;2.15;;;0.20;;
84474;SDS011;74699;43.068;0.152;2023-12-22T02:46:30;0.32;;;0.08;;
84474;SDS011;74699;43.068;0.152;2023-12-22T02:48:56;0.63;;;0.25;;
84474;SDS011;74699;43.068;0.152;2023-12-22T02:51:22;0.80;;;0.30;;
84474;SDS011;74699;43.068;0.152;2023-12-22T02:53:48;0.00;;;0.00;;
84474;SDS011;74699;43.068;0.152;2023-12-22T02:56:14;1.60;;;0.10;;
84474;SDS011;74699;43.068;0.152;2023-12-22T02:58:40;0.28;;;0.00;;
84474;SDS011;74699;43.068;0.152;2023-12-22T03:01:06;0.13;;;0.00;;
84474;SDS011;74699;43.068;0.152;2023-12-22T03:03:32;0.65;;;0.20;;
84474;SDS011;74699;43.068;0.152;2023-12-22T03:05:58;1.23;;;0.00;;
84474;SDS011;74699;43.068;0.152;2023-12-22T03:08:24;0.30;;;0.05;;
84474;SDS011;74699;43.068;0.152;2023-12-22T03:10:50;0.10;;;0.00;;
84474;SDS011;74699;43.068;0.152;2023-12-22T03:13:16;0.73;;;0.20;;
84474;SDS011;74699;43.068;0.152;2023-12-22T03:15:42;0.55;;;0.10;;
84474;SDS011;74699;43.068;0.152;2023-12-22T03:18:08;1.95;;;0.10;;
84474;SDS011;74699;43.068;0.152;2023-12-22T03:20:34;0.50;;;0.10;;
84474;SDS011;74699;43.068;0.152;2023-12-22T03:23:00;0.68;;;0.10;;
84474;SDS011;74699;43.068;0.152;2023-12-22T03:25:26;1.63;;;0.25;;
84474;SDS011;74699;43.068;0.152;2023-12-22T03:27:52;1.48;;;0.32;;
84474;SDS011;74699;43.068;0.152;2023-12-22T03:30:18;0.93;;;0.20;;
84474;SDS011;74699;43.068;0.152;2023-12-22T03:32:44;0.70;;;0.10;;
84474;SDS011;74699;43.068;0.152;2023-12-22T03:35:10;0.82;;;0.20;;
84474;SDS011;74699;43.068;0.152;2023-12-22T03:37:36;0.90;;;0.30;;
84474;SDS011;74699;43.068;0.152;2023-12-22T03:40:02;1.60;;;0.28;;
84474;SDS011;74699;43.068;0.152;2023-12-22T03:42:28;2.38;;;0.50;;
84474;SDS011;74699;43.068;0.152;2023-12-22T03:44:54;1.50;;;0.20;;
84474;SDS011;74699;43.068;0.152;2023-12-22T03:47:20;0.00;;;0.00;;
84474;SDS011;74699;43.068;0.152;2023-12-22T03:49:47;1.13;;;0.10;;
84474;SDS011;74699;43.068;0.152;2023-12-22T03:52:13;0.93;;;0.00;;
84474;SDS011;74699;43.068;0.152;2023-12-22T03:54:39;0.30;;;0.00;;
84474;SDS011;74699;43.068;0.152;2023-12-22T03:57:05;0.90;;;0.20;;
84474;SDS011;74699;43.068;0.152;2023-12-22T03:59:31;0.93;;;0.20;;
84474;SDS011;74699;43.068;0.152;2023-12-22T04:01:57;0.57;;;0.00;;
84474;SDS011;74699;43.068;0.152;2023-12-22T04:04:26;0.82;;;0.10;;
84474;SDS011;74699;43.068;0.152;2023-12-22T04:06:53;2.15;;;0.43;;
84474;SDS011;74699;43.068;0.152;2023-12-22T04:09:19;0.10;;;0.00;;
84474;SDS011;74699;43.068;0.152;2023-12-22T04:11:45;1.85;;;0.10;;
84474;SDS011;74699;43.068;0.152;2023-12-22T04:14:11;1.23;;;0.10;;
84474;SDS011;74699;43.068;0.152;2023-12-22T04:16:37;0.75;;;0.10;;
84474;SDS011;74699;43.068;0.152;2023-12-22T04:19:03;0.40;;;0.00;;
84474;SDS011;74699;43.068;0.152;2023-12-22T04:21:29;1.10;;;0.10;;
84474;SDS011;74699;43.068;0.152;2023-12-22T04:23:55;1.15;;;0.10;;
84474;SDS011;74699;43.068;0.152;2023-12-22T04:26:21;1.02;;;0.17;;
84474;SDS011;74699;43.068;0.152;2023-12-22T04:28:47;0.55;;;0.00;;
84474;SDS011;74699;43.068;0.152;2023-12-22T04:31:13;0.52;;;0.10;;
84474;SDS011;74699;43.068;0.152;2023-12-22T04:33:39;0.28;;;0.00;;
84474;SDS011;74699;43.068;0.152;2023-12-22T04:36:05;0.15;;;0.00;;
84474;SDS011;74699;43.068;0.152;2023-12-22T04:38:31;0.00;;;0.00;;
84474;SDS011;74699;43.068;0.152;2023-12-22T04:40:57;0.10;;;0.00;;
84474;SDS011;74699;43.068;0.152;2023-12-22T04:43:23;0.10;;;0.00;;
84474;SDS011;74699;43.068;0.152;2023-12-22T04:45:49;0.10;;;0.00;;
84474;SDS011;74699;43.068;0.152;2023-12-22T04:48:15;0.95;;;0.00;;
84474;SDS011;74699;43.068;0.152;2023-12-22T04:50:41;1.63;;;0.20;;
84474;SDS011;74699;43.068;0.152;2023-12-22T04:53:07;0.52;;;0.10;;
84474;SDS011;74699;43.068;0.152;2023-12-22T04:55:33;0.90;;;0.20;;
84474;SDS011;74699;43.068;0.152;2023-12-22T04:57:59;0.95;;;0.22;;
84474;SDS011;74699;43.068;0.152;2023-12-22T05:00:25;0.28;;;0.00;;
84474;SDS011;74699;43.068;0.152;2023-12-22T05:02:51;0.30;;;0.10;;
84474;SDS011;74699;43.068;0.152;2023-12-22T05:05:17;0.75;;;0.00;;
84474;SDS011;74699;43.068;0.152;2023-12-22T05:07:43;0.22;;;0.00;;
84474;SDS011;74699;43.068;0.152;2023-12-22T05:10:09;0.52;;;0.10;;
84474;SDS011;74699;43.068;0.152;2023-12-22T05:12:35;0.95;;;0.20;;
84474;SDS011;74699;43.068;0.152;2023-12-22T05:15:01;0.35;;;0.00;;
84474;SDS011;74699;43.068;0.152;2023-12-22T05:17:27;0.20;;;0.00;;
84474;SDS011;74699;43.068;0.152;2023-12-22T05:19:53;0.95;;;0.22;;
84474;SDS011;74699;43.068;0.152;2023-12-22T05:22:19;0.10;;;0.10;;
84474;SDS011;74699;43.068;0.152;2023-12-22T05:24:45;0.17;;;0.00;;
84474;SDS011;74699;43.068;0.152;2023-12-22T05:27:12;0.73;;;0.20;;
84474;SDS011;74699;43.068;0.152;2023-12-22T05:29:39;1.50;;;0.20;;
84474;SDS011;74699;43.068;0.152;2023-12-22T05:32:05;1.50;;;0.20;;
84474;SDS011;74699;43.068;0.152;2023-12-22T05:34:31;0.82;;;0.20;;
84474;SDS011;74699;43.068;0.152;2023-12-22T05:36:57;0.90;;;0.20;;
84474;SDS011;74699;43.068;0.152;2023-12-22T05:39:23;0.63;;;0.10;;
84474;SDS011;74699;43.068;0.152;2023-12-22T05:41:50;0.43;;;0.10;;
84474;SDS011;74699;43.068;0.152;2023-12-22T05:44:16;0.28;;;0.10;;
84474;SDS011;74699;43.068;0.152;2023-12-22T05:46:42;0.57;;;0.10;;
84474;SDS011;74699;43.068;0.152;2023-12-22T05:49:08;1.48;;;0.30;;
84474;SDS011;74699;43.068;0.152;2023-12-22T05:51:37;0.10;;;0.05;;
84474;SDS011;74699;43.068;0.152;2023-12-22T05:54:04;0.13;;;0.03;;
84474;SDS011;74699;43.068;0.152;2023-12-22T05:56:30;1.60;;;0.20;;
84474;SDS011;74699;43.068;0.152;2023-12-22T05:58:56;0.28;;;0.03;;
84474;SDS011;74699;43.068;0.152;2023-12-22T06:01:22;0.55;;;0.10;;
84474;SDS011;74699;43.068;0.152;2023-12-22T06:03:48;0.52;;;0.00;;
84474;SDS011;74699;43.068;0.152;2023-12-22T06:06:14;0.73;;;0.10;;
84474;SDS011;74699;43.068;0.152;2023-12-22T06:08:40;0.57;;;0.17;;
84474;SDS011;74699;43.068;0.152;2023-12-22T06:11:06;0.17;;;0.00;;
84474;SDS011;74699;43.068;0.152;2023-12-22T06:13:32;1.00;;;0.20;;
84474;SDS011;74699;43.068;0.152;2023-12-22T06:15:58;0.80;;;0.10;;
84474;SDS011;74699;43.068;0.152;2023-12-22T06:18:24;0.40;;;0.00;;
84474;SDS011;74699;43.068;0.152;2023-12-22T06:20:51;0.68;;;0.00;;
84474;SDS011;74699;43.068;0.152;2023-12-22T06:23:17;1.05;;;0.17;;
84474;SDS011;74699;43.068;0.152;2023-12-22T06:25:43;0.40;;;0.10;;
84474;SDS011;74699;43.068;0.152;2023-12-22T06:30:37;0.90;;;0.28;;
84474;SDS011;74699;43.068;0.152;2023-12-22T06:33:03;0.47;;;0.08;;
84474;SDS011;74699;43.068;0.152;2023-12-22T06:35:29;0.65;;;0.13;;
84474;SDS011;74699;43.068;0.152;2023-12-22T06:37:56;1.58;;;0.20;;
84474;SDS011;74699;43.068;0.152;2023-12-22T06:40:26;0.43;;;0.10;;
84474;SDS011;74699;43.068;0.152;2023-12-22T06:42:52;0.55;;;0.10;;
84474;SDS011;74699;43.068;0.152;2023-12-22T06:45:18;0.90;;;0.20;;
84474;SDS011;74699;43.068;0.152;2023-12-22T06:47:44;0.20;;;0.00;;
84474;SDS011;74699;43.068;0.152;2023-12-22T06:50:10;0.20;;;0.00;;
84474;SDS011;74699;43.068;0.152;2023-12-22T06:52:36;2.45;;;0.60;;
84474;SDS011;74699;43.068;0.152;2023-12-22T06:55:02;0.60;;;0.10;;
84474;SDS011;74699;43.068;0.152;2023-12-22T06:57:29;0.75;;;0.20;;
84474;SDS011;74699;43.068;0.152;2023-12-22T06:59:55;0.57;;;0.20;;
84474;SDS011;74699;43.068;0.152;2023-12-22T07:02:21;0.40;;;0.10;;
84474;SDS011;74699;43.068;0.152;2023-12-22T07:07:32;0.28;;;0.05;;
84474;SDS011;74699;43.068;0.152;2023-12-22T07:09:58;0.00;;;0.00;;
84474;SDS011;74699;43.068;0.152;2023-12-22T07:12:24;0.45;;;0.10;;
84474;SDS011;74699;43.068;0.152;2023-12-22T07:14:50;0.13;;;0.00;;
84474;SDS011;74699;43.068;0.152;2023-12-22T07:17:16;0.30;;;0.10;;
84474;SDS011;74699;43.068;0.152;2023-12-22T07:19:42;0.25;;;0.10;;
84474;SDS011;74699;43.068;0.152;2023-12-22T07:22:08;0.08;;;0.00;;
84474;SDS011;74699;43.068;0.152;2023-12-22T07:24:34;0.20;;;0.00;;
84474;SDS011;74699;43.068;0.152;2023-12-22T07:27:00;0.15;;;0.10;;
84474;SDS011;74699;43.068;0.152;2023-12-22T07:29:26;0.38;;;0.00;;
84474;SDS011;74699;43.068;0.152;2023-12-22T07:31:52;0.40;;;0.13;;
84474;SDS011;74699;43.068;0.152;2023-12-22T07:34:18;0.57;;;0.10;;
84474;SDS011;74699;43.068;0.152;2023-12-22T07:36:44;1.35;;;0.20;;
84474;SDS011;74699;43.068;0.152;2023-12-22T07:39:10;0.28;;;0.00;;
84474;SDS011;74699;43.068;0.152;2023-12-22T07:41:36;0.15;;;0.00;;
84474;SDS011;74699;43.068;0.152;2023-12-22T07:44:02;0.75;;;0.10;;
84474;SDS011;74699;43.068;0.152;2023-12-22T07:46:28;0.00;;;0.00;;
84474;SDS011;74699;43.068;0.152;2023-12-22T07:48:55;0.73;;;0.10;;
84474;SDS011;74699;43.068;0.152;2023-12-22T07:51:21;0.30;;;0.00;;
84474;SDS011;74699;43.068;0.152;2023-12-22T07:53:47;0.90;;;0.20;;
84474;SDS011;74699;43.068;0.152;2023-12-22T07:56:14;0.50;;;0.10;;
84474;SDS011;74699;43.068;0.152;2023-12-22T07:58:40;0.43;;;0.10;;
84474;SDS011;74699;43.068;0.152;2023-12-22T08:01:06;0.25;;;0.00;;
84474;SDS011;74699;43.068;0.152;2023-12-22T08:03:32;0.57;;;0.20;;
84474;SDS011;74699;43.068;0.152;2023-12-22T08:05:58;0.60;;;0.10;;
84474;SDS011;74699;43.068;0.152;2023-12-22T08:08:25;0.47;;;0.10;;
84474;SDS011;74699;43.068;0.152;2023-12-22T08:10:51;0.28;;;0.03;;
84474;SDS011;74699;43.068;0.152;2023-12-22T08:13:17;0.93;;;0.20;;
84474;SDS011;74699;43.068;0.152;2023-12-22T08:15:43;0.43;;;0.10;;
84474;SDS011;74699;43.068;0.152;2023-12-22T08:18:09;0.57;;;0.00;;
84474;SDS011;74699;43.068;0.152;2023-12-22T08:20:36;0.22;;;0.03;;
84474;SDS011;74699;43.068;0.152;2023-12-22T08:23:02;1.35;;;0.10;;
84474;SDS011;74699;43.068;0.152;2023-12-22T08:25:28;0.30;;;0.03;;
84474;SDS011;74699;43.068;0.152;2023-12-22T08:27:57;0.15;;;0.00;;
84474;SDS011;74699;43.068;0.152;2023-12-22T08:30:23;1.05;;;0.10;;
84474;SDS011;74699;43.068;0.152;2023-12-22T08:32:50;0.17;;;0.00;;
84474;SDS011;74699;43.068;0.152;2023-12-22T08:35:16;0.10;;;0.00;;
84474;SDS011;74699;43.068;0.152;2023-12-22T08:37:42;0.25;;;0.03;;
84474;SDS011;74699;43.068;0.152;2023-12-22T08:40:08;1.15;;;0.10;;
84474;SDS011;74699;43.068;0.152;2023-12-22T08:42:34;0.47;;;0.15;;
84474;SDS011;74699;43.068;0.152;2023-12-22T08:45:00;1.30;;;0.20;;
84474;SDS011;74699;43.068;0.152;2023-12-22T08:47:27;0.47;;;0.20;;
84474;SDS011;74699;43.068;0.152;2023-12-22T08:49:53;0.40;;;0.08;;
84474;SDS011;74699;43.068;0.152;2023-12-22T08:52:19;0.13;;;0.03;;
84474;SDS011;74699;43.068;0.152;2023-12-22T08:54:45;0.15;;;0.00;;
84474;SDS011;74699;43.068;0.152;2023-12-22T08:57:11;0.73;;;0.10;;
84474;SDS011;74699;43.068;0.152;2023-12-22T08:59:37;0.05;;;0.00;;
84474;SDS011;74699;43.068;0.152;2023-12-22T09:02:03;0.40;;;0.00;;
84474;SDS011;74699;43.068;0.152;2023-12-22T09:04:31;0.68;;;0.10;;
84474;SDS011;74699;43.068;0.152;2023-12-22T09:06:57;0.35;;;0.00;;
84474;SDS011;74699;43.068;0.152;2023-12-22T09:09:23;0.47;;;0.00;;
84474;SDS011;74699;43.068;0.152;2023-12-22T09:11:49;0.55;;;0.05;;
84474;SDS011;74699;43.068;0.152;2023-12-22T09:14:16;0.30;;;0.00;;
84474;SDS011;74699;43.068;0.152;2023-12-22T09:16:42;0.50;;;0.10;;
84474;SDS011;74699;43.068;0.152;2023-12-22T09:19:09;1.15;;;0.10;;
84474;SDS011;74699;43.068;0.152;2023-12-22T09:21:35;0.17;;;0.10;;
84474;SDS011;74699;43.068;0.152;2023-12-22T09:24:01;0.77;;;0.03;;
84474;SDS011;74699;43.068;0.152;2023-12-22T09:26:27;0.47;;;0.10;;
84474;SDS011;74699;43.068;0.152;2023-12-22T09:28:54;0.45;;;0.10;;
84474;SDS011;74699;43.068;0.152;2023-12-22T09:31:20;1.65;;;0.50;;
84474;SDS011;74699;43.068;0.152;2023-12-22T09:33:47;1.58;;;0.25;;
84474;SDS011;74699;43.068;0.152;2023-12-22T09:36:13;3.65;;;0.73;;
84474;SDS011;74699;43.068;0.152;2023-12-22T09:38:39;2.20;;;0.45;;
84474;SDS011;74699;43.068;0.152;2023-12-22T09:41:06;1.25;;;0.20;;
84474;SDS011;74699;43.068;0.152;2023-12-22T09:43:33;2.92;;;0.60;;
84474;SDS011;74699;43.068;0.152;2023-12-22T09:46:04;2.38;;;0.55;;
84474;SDS011;74699;43.068;0.152;2023-12-22T09:48:30;1.05;;;0.17;;
84474;SDS011;74699;43.068;0.152;2023-12-22T09:50:57;2.65;;;0.52;;
84474;SDS011;74699;43.068;0.152;2023-12-22T09:55:50;1.52;;;0.40;;
84474;SDS011;74699;43.068;0.152;2023-12-22T09:58:16;1.92;;;0.40;;
84474;SDS011;74699;43.068;0.152;2023-12-22T10:00:43;1.83;;;0.28;;
84474;SDS011;74699;43.068;0.152;2023-12-22T10:03:10;1.70;;;0.30;;
84474;SDS011;74699;43.068;0.152;2023-12-22T10:05:42;1.42;;;0.20;;
84474;SDS011;74699;43.068;0.152;2023-12-22T10:08:08;0.77;;;0.10;;
84474;SDS011;74699;43.068;0.152;2023-12-22T10:10:38;2.00;;;0.30;;
84474;SDS011;74699;43.068;0.152;2023-12-22T10:13:10;2.20;;;0.60;;
84474;SDS011;74699;43.068;0.152;2023-12-22T10:15:38;0.95;;;0.20;;
84474;SDS011;74699;43.068;0.152;2023-12-22T10:18:06;1.05;;;0.80;;
84474;SDS011;74699;43.068;0.152;2023-12-22T10:20:32;0.45;;;0.10;;
84474;SDS011;74699;43.068;0.152;2023-12-22T10:22:58;3.25;;;0.63;;
84474;SDS011;74699;43.068;0.152;2023-12-22T10:25:27;1.02;;;0.20;;
84474;SDS011;74699;43.068;0.152;2023-12-22T10:27:54;2.92;;;0.70;;
84474;SDS011;74699;43.068;0.152;2023-12-22T10:30:20;1.92;;;0.28;;
84474;SDS011;74699;43.068;0.152;2023-12-22T10:32:49;2.65;;;0.80;;
84474;SDS011;74699;43.068;0.152;2023-12-22T10:35:16;1.73;;;0.47;;
84474;SDS011;74699;43.068;0.152;2023-12-22T10:37:42;2.70;;;0.80;;
84474;SDS011;74699;43.068;0.152;2023-12-22T10:40:09;2.30;;;0.70;;
84474;SDS011;74699;43.068;0.152;2023-12-22T10:42:35;1.50;;;0.30;;
84474;SDS011;74699;43.068;0.152;2023-12-22T10:45:02;1.30;;;0.40;;
84474;SDS011;74699;43.068;0.152;2023-12-22T10:47:28;1.52;;;0.40;;
84474;SDS011;74699;43.068;0.152;2023-12-22T10:49:54;3.10;;;0.60;;
84474;SDS011;74699;43.068;0.152;2023-12-22T10:52:20;1.60;;;0.50;;
84474;SDS011;74699;43.068;0.152;2023-12-22T10:54:47;1.05;;;0.25;;
84474;SDS011;74699;43.068;0.152;2023-12-22T10:57:17;1.80;;;0.50;;
84474;SDS011;74699;43.068;0.152;2023-12-22T10:59:44;1.48;;;0.57;;
84474;SDS011;74699;43.068;0.152;2023-12-22T11:02:14;1.55;;;0.50;;
84474;SDS011;74699;43.068;0.152;2023-12-22T11:04:41;3.28;;;0.70;;
84474;SDS011;74699;43.068;0.152;2023-12-22T11:07:09;1.63;;;0.40;;
84474;SDS011;74699;43.068;0.152;2023-12-22T11:09:36;1.95;;;0.40;;
84474;SDS011;74699;43.068;0.152;2023-12-22T11:12:03;1.60;;;0.50;;
84474;SDS011;74699;43.068;0.152;2023-12-22T11:14:30;1.55;;;0.40;;
84474;SDS011;74699;43.068;0.152;2023-12-22T11:16:57;0.77;;;0.13;;
84474;SDS011;74699;43.068;0.152;2023-12-22T11:19:25;1.60;;;0.40;;
84474;SDS011;74699;43.068;0.152;2023-12-22T11:21:52;2.20;;;0.47;;
84474;SDS011;74699;43.068;0.152;2023-12-22T11:24:19;1.67;;;0.38;;
84474;SDS011;74699;43.068;0.152;2023-12-22T11:26:46;5.35;;;1.42;;
84474;SDS011;74699;43.068;0.152;2023-12-22T11:29:12;0.68;;;0.20;;
84474;SDS011;74699;43.068;0.152;2023-12-22T11:31:40;0.90;;;0.20;;
84474;SDS011;74699;43.068;0.152;2023-12-22T11:34:06;0.88;;;0.20;;
84474;SDS011;74699;43.068;0.152;2023-12-22T11:36:33;0.30;;;0.00;;
84474;SDS011;74699;43.068;0.152;2023-12-22T11:39:00;0.30;;;0.10;;
84474;SDS011;74699;43.068;0.152;2023-12-22T11:41:27;1.08;;;0.10;;
84474;SDS011;74699;43.068;0.152;2023-12-22T11:43:55;1.27;;;0.20;;
84474;SDS011;74699;43.068;0.152;2023-12-22T11:46:22;0.10;;;0.00;;
84474;SDS011;74699;43.068;0.152;2023-12-22T11:48:53;0.38;;;0.10;;
84474;SDS011;74699;43.068;0.152;2023-12-22T11:51:20;0.85;;;0.20;;
84474;SDS011;74699;43.068;0.152;2023-12-22T11:53:47;0.40;;;0.10;;
84474;SDS011;74699;43.068;0.152;2023-12-22T11:56:13;0.85;;;0.00;;
84474;SDS011;74699;43.068;0.152;2023-12-22T11:58:40;0.13;;;0.00;;
84474;SDS011;74699;43.068;0.152;2023-12-22T12:01:10;0.25;;;0.10;;
84474;SDS011;74699;43.068;0.152;2023-12-22T12:03:37;0.28;;;0.00;;
84474;SDS011;74699;43.068;0.152;2023-12-22T12:06:11;0.38;;;0.00;;
84474;SDS011;74699;43.068;0.152;2023-12-22T12:08:37;1.40;;;0.40;;
84474;SDS011;74699;43.068;0.152;2023-12-22T12:11:03;0.93;;;0.20;;
84474;SDS011;74699;43.068;0.152;2023-12-22T12:13:30;0.82;;;0.30;;
84474;SDS011;74699;43.068;0.152;2023-12-22T12:15:58;1.55;;;0.30;;
84474;SDS011;74699;43.068;0.152;2023-12-22T12:18:30;0.80;;;0.20;;
84474;SDS011;74699;43.068;0.152;2023-12-22T12:20:57;0.75;;;0.15;;
84474;SDS011;74699;43.068;0.152;2023-12-22T12:23:24;1.58;;;0.20;;
84474;SDS011;74699;43.068;0.152;2023-12-22T12:25:50;0.47;;;0.10;;
84474;SDS011;74699;43.068;0.152;2023-12-22T12:28:16;1.15;;;0.30;;
84474;SDS011;74699;43.068;0.152;2023-12-22T12:30:45;0.40;;;0.10;;
84474;SDS011;74699;43.068;0.152;2023-12-22T12:33:12;0.38;;;0.10;;
84474;SDS011;74699;43.068;0.152;2023-12-22T12:35:39;0.75;;;0.10;;
84474;SDS011;74699;43.068;0.152;2023-12-22T12:38:06;0.47;;;0.10;;
84474;SDS011;74699;43.068;0.152;2023-12-22T12:40:32;0.45;;;0.00;;
84474;SDS011;74699;43.068;0.152;2023-12-22T12:43:00;0.80;;;0.13;;
84474;SDS011;74699;43.068;0.152;2023-12-22T12:50:23;0.05;;;0.00;;
84474;SDS011;74699;43.068;0.152;2023-12-22T12:52:51;1.15;;;0.28;;
84474;SDS011;74699;43.068;0.152;2023-12-22T12:55:20;0.50;;;0.10;;
84474;SDS011;74699;43.068;0.152;2023-12-22T12:57:50;0.35;;;0.10;;
84474;SDS011;74699;43.068;0.152;2023-12-22T13:00:16;0.68;;;0.25;;
84474;SDS011;74699;43.068;0.152;2023-12-22T13:02:43;0.35;;;0.10;;
84474;SDS011;74699;43.068;0.152;2023-12-22T13:05:09;0.40;;;0.10;;
84474;SDS011;74699;43.068;0.152;2023-12-22T13:07:45;0.32;;;0.10;;
84474;SDS011;74699;43.068;0.152;2023-12-22T13:10:24;0.73;;;0.10;;
84474;SDS011;74699;43.068;0.152;2023-12-22T13:12:50;1.17;;;0.20;;
84474;SDS011;74699;43.068;0.152;2023-12-22T13:15:19;1.17;;;0.10;;
84474;SDS011;74699;43.068;0.152;2023-12-22T13:17:45;0.75;;;0.20;;
84474;SDS011;74699;43.068;0.152;2023-12-22T13:20:11;0.28;;;0.10;;
84474;SDS011;74699;43.068;0.152;2023-12-22T13:22:38;0.60;;;0.20;;
84474;SDS011;74699;43.068;0.152;2023-12-22T13:25:04;0.50;;;0.03;;
84474;SDS011;74699;43.068;0.152;2023-12-22T13:27:30;0.30;;;0.10;;
84474;SDS011;74699;43.068;0.152;2023-12-22T13:29:56;0.10;;;0.00;;
84474;SDS011;74699;43.068;0.152;2023-12-22T13:32:22;0.10;;;0.00;;
84474;SDS011;74699;43.068;0.152;2023-12-22T13:34:51;0.10;;;0.00;;
84474;SDS011;74699;43.068;0.152;2023-12-22T13:37:17;0.30;;;0.10;;
84474;SDS011;74699;43.068;0.152;2023-12-22T13:39:43;1.10;;;0.10;;
84474;SDS011;74699;43.068;0.152;2023-12-22T13:42:28;0.57;;;0.20;;
84474;SDS011;74699;43.068;0.152;2023-12-22T13:44:54;0.20;;;0.10;;
84474;SDS011;74699;43.068;0.152;2023-12-22T13:47:21;0.30;;;0.03;;
84474;SDS011;74699;43.068;0.152;2023-12-22T13:49:48;0.28;;;0.10;;
84474;SDS011;74699;43.068;0.152;2023-12-22T13:54:52;0.65;;;0.10;;
84474;SDS011;74699;43.068;0.152;2023-12-22T13:57:21;0.38;;;0.10;;
84474;SDS011;74699;43.068;0.152;2023-12-22T13:59:48;0.63;;;0.10;;
84474;SDS011;74699;43.068;0.152;2023-12-22T14:02:14;0.38;;;0.10;;
84474;SDS011;74699;43.068;0.152;2023-12-22T14:04:40;1.30;;;0.30;;
84474;SDS011;74699;43.068;0.152;2023-12-22T14:07:06;0.40;;;0.20;;
84474;SDS011;74699;43.068;0.152;2023-12-22T14:09:32;0.22;;;0.00;;
84474;SDS011;74699;43.068;0.152;2023-12-22T14:11:59;0.80;;;0.10;;
84474;SDS011;74699;43.068;0.152;2023-12-22T14:14:25;1.20;;;0.38;;
84474;SDS011;74699;43.068;0.152;2023-12-22T14:16:51;0.52;;;0.10;;
84474;SDS011;74699;43.068;0.152;2023-12-22T14:19:17;0.98;;;0.20;;
84474;SDS011;74699;43.068;0.152;2023-12-22T14:21:43;0.10;;;0.00;;
84474;SDS011;74699;43.068;0.152;2023-12-22T14:24:09;1.33;;;0.10;;
84474;SDS011;74699;43.068;0.152;2023-12-22T14:26:51;0.55;;;0.10;;
84474;SDS011;74699;43.068;0.152;2023-12-22T14:29:17;0.05;;;0.05;;
84474;SDS011;74699;43.068;0.152;2023-12-22T14:31:43;1.48;;;0.40;;
84474;SDS011;74699;43.068;0.152;2023-12-22T14:34:12;0.43;;;0.08;;
84474;SDS011;74699;43.068;0.152;2023-12-22T14:36:38;0.28;;;0.10;;
84474;SDS011;74699;43.068;0.152;2023-12-22T14:39:04;0.80;;;0.30;;
84474;SDS011;74699;43.068;0.152;2023-12-22T14:41:30;0.63;;;0.10;;
84474;SDS011;74699;43.068;0.152;2023-12-22T14:43:56;0.20;;;0.00;;
84474;SDS011;74699;43.068;0.152;2023-12-22T14:46:22;0.88;;;0.10;;
84474;SDS011;74699;43.068;0.152;2023-12-22T14:48:48;0.17;;;0.08;;
84474;SDS011;74699;43.068;0.152;2023-12-22T14:51:15;0.10;;;0.00;;
84474;SDS011;74699;43.068;0.152;2023-12-22T14:53:41;0.35;;;0.10;;
84474;SDS011;74699;43.068;0.152;2023-12-22T14:56:07;0.52;;;0.13;;
84474;SDS011;74699;43.068;0.152;2023-12-22T14:58:33;0.70;;;0.20;;
84474;SDS011;74699;43.068;0.152;2023-12-22T15:00:59;0.63;;;0.10;;